sensor_id;sensor_type;location;lat;lon;timestamp;temperature;humidity
68128;SHT30;54931;52.098;21.006;2024-01-15T00:00:25;1.27;84.73
68128;SHT30;54931;52.098;21.006;2024-01-15T00:03:13;1.27;84.82
68128;SHT30;54931;52.098;21.006;2024-01-15T00:05:41;1.26;84.87
68128;SHT30;54931;52.098;21.006;2024-01-15T00:08:09;1.27;84.80
68128;SHT30;54931;52.098;21.006;2024-01-15T00:10:37;1.27;84.80
68128;SHT30;54931;52.098;21.006;2024-01-15T00:13:06;1.27;84.80
68128;SHT30;54931;52.098;21.006;2024-01-15T00:15:33;1.29;84.78
68128;SHT30;54931;52.098;21.006;2024-01-15T00:18:01;1.30;84.70
68128;SHT30;54931;52.098;21.006;2024-01-15T00:20:28;1.29;84.70
68128;SHT30;54931;52.098;21.006;2024-01-15T00:22:56;1.30;84.64
68128;SHT30;54931;52.098;21.006;2024-01-15T00:25:23;1.31;84.57
68128;SHT30;54931;52.098;21.006;2024-01-15T00:27:51;1.31;84.50
68128;SHT30;54931;52.098;21.006;2024-01-15T00:30:18;1.31;84.39
68128;SHT30;54931;52.098;21.006;2024-01-15T00:32:46;1.31;84.28
68128;SHT30;54931;52.098;21.006;2024-01-15T00:35:14;1.32;84.25
68128;SHT30;54931;52.098;21.006;2024-01-15T00:37:41;1.31;84.20
68128;SHT30;54931;52.098;21.006;2024-01-15T00:40:09;1.30;84.20
68128;SHT30;54931;52.098;21.006;2024-01-15T00:42:37;1.29;84.17
68128;SHT30;54931;52.098;21.006;2024-01-15T00:45:04;1.29;84.10
68128;SHT30;54931;52.098;21.006;2024-01-15T00:47:34;1.30;84.09
68128;SHT30;54931;52.098;21.006;2024-01-15T00:50:02;1.28;84.10
68128;SHT30;54931;52.098;21.006;2024-01-15T00:52:30;1.29;84.12
68128;SHT30;54931;52.098;21.006;2024-01-15T00:54:58;1.28;84.16
68128;SHT30;54931;52.098;21.006;2024-01-15T00:57:26;1.26;84.23
68128;SHT30;54931;52.098;21.006;2024-01-15T00:59:54;1.25;84.30
68128;SHT30;54931;52.098;21.006;2024-01-15T01:02:21;1.24;84.37
68128;SHT30;54931;52.098;21.006;2024-01-15T01:04:49;1.24;84.41
68128;SHT30;54931;52.098;21.006;2024-01-15T01:07:16;1.24;84.43
68128;SHT30;54931;52.098;21.006;2024-01-15T01:09:44;1.23;84.58
68128;SHT30;54931;52.098;21.006;2024-01-15T01:12:12;1.20;84.70
68128;SHT30;54931;52.098;21.006;2024-01-15T01:14:41;1.17;84.84
68128;SHT30;54931;52.098;21.006;2024-01-15T01:17:08;1.13;85.02
68128;SHT30;54931;52.098;21.006;2024-01-15T01:19:35;1.11;85.21
68128;SHT30;54931;52.098;21.006;2024-01-15T01:22:04;1.09;85.22
68128;SHT30;54931;52.098;21.006;2024-01-15T01:24:32;1.09;85.29
68128;SHT30;54931;52.098;21.006;2024-01-15T01:27:00;1.09;85.36
68128;SHT30;54931;52.098;21.006;2024-01-15T01:29:28;1.07;85.57
68128;SHT30;54931;52.098;21.006;2024-01-15T01:31:55;1.08;85.84
68128;SHT30;54931;52.098;21.006;2024-01-15T01:34:23;1.07;85.76
68128;SHT30;54931;52.098;21.006;2024-01-15T01:36:51;1.07;85.69
68128;SHT30;54931;52.098;21.006;2024-01-15T01:39:19;1.06;85.71
68128;SHT30;54931;52.098;21.006;2024-01-15T01:41:46;1.07;85.77
68128;SHT30;54931;52.098;21.006;2024-01-15T01:44:14;1.07;85.73
68128;SHT30;54931;52.098;21.006;2024-01-15T01:46:45;1.08;85.70
68128;SHT30;54931;52.098;21.006;2024-01-15T01:49:13;1.07;85.70
68128;SHT30;54931;52.098;21.006;2024-01-15T01:51:41;1.08;85.70
68128;SHT30;54931;52.098;21.006;2024-01-15T01:54:08;1.10;85.64
68128;SHT30;54931;52.098;21.006;2024-01-15T01:56:40;1.09;85.60
68128;SHT30;54931;52.098;21.006;2024-01-15T01:59:09;1.11;85.55
68128;SHT30;54931;52.098;21.006;2024-01-15T02:01:38;1.11;85.49
68128;SHT30;54931;52.098;21.006;2024-01-15T02:04:08;1.11;85.41
68128;SHT30;54931;52.098;21.006;2024-01-15T02:06:36;1.11;85.41
68128;SHT30;54931;52.098;21.006;2024-01-15T02:09:04;1.11;85.33
68128;SHT30;54931;52.098;21.006;2024-01-15T02:11:35;1.12;85.28
68128;SHT30;54931;52.098;21.006;2024-01-15T02:14:05;1.11;85.19
68128;SHT30;54931;52.098;21.006;2024-01-15T02:16:33;1.11;85.12
68128;SHT30;54931;52.098;21.006;2024-01-15T02:19:00;1.12;85.02
68128;SHT30;54931;52.098;21.006;2024-01-15T02:21:28;1.12;84.98
68128;SHT30;54931;52.098;21.006;2024-01-15T02:23:56;1.11;84.89
68128;SHT30;54931;52.098;21.006;2024-01-15T02:26:23;1.11;84.81
68128;SHT30;54931;52.098;21.006;2024-01-15T02:28:51;1.12;84.82
68128;SHT30;54931;52.098;21.006;2024-01-15T02:31:19;1.12;84.80
68128;SHT30;54931;52.098;21.006;2024-01-15T02:33:47;1.10;84.66
68128;SHT30;54931;52.098;21.006;2024-01-15T02:36:15;1.12;84.58
68128;SHT30;54931;52.098;21.006;2024-01-15T02:38:43;1.13;84.57
68128;SHT30;54931;52.098;21.006;2024-01-15T02:41:10;1.13;84.47
68128;SHT30;54931;52.098;21.006;2024-01-15T02:43:41;1.13;84.35
68128;SHT30;54931;52.098;21.006;2024-01-15T02:46:08;1.13;84.34
68128;SHT30;54931;52.098;21.006;2024-01-15T02:48:36;1.13;84.33
68128;SHT30;54931;52.098;21.006;2024-01-15T02:51:04;1.13;84.36
68128;SHT30;54931;52.098;21.006;2024-01-15T02:53:31;1.11;84.38
68128;SHT30;54931;52.098;21.006;2024-01-15T02:55:59;1.11;84.40
68128;SHT30;54931;52.098;21.006;2024-01-15T02:58:26;1.11;84.46
68128;SHT30;54931;52.098;21.006;2024-01-15T03:00:54;1.11;84.47
68128;SHT30;54931;52.098;21.006;2024-01-15T03:03:21;1.11;84.50
68128;SHT30;54931;52.098;21.006;2024-01-15T03:05:49;1.10;84.50
68128;SHT30;54931;52.098;21.006;2024-01-15T03:08:17;1.10;84.49
68128;SHT30;54931;52.098;21.006;2024-01-15T03:10:44;1.09;84.40
68128;SHT30;54931;52.098;21.006;2024-01-15T03:13:12;1.09;84.38
68128;SHT30;54931;52.098;21.006;2024-01-15T03:15:39;1.08;84.34
68128;SHT30;54931;52.098;21.006;2024-01-15T03:18:07;1.08;84.45
68128;SHT30;54931;52.098;21.006;2024-01-15T03:20:34;1.05;84.59
68128;SHT30;54931;52.098;21.006;2024-01-15T03:23:02;1.03;84.78
68128;SHT30;54931;52.098;21.006;2024-01-15T03:25:30;1.00;84.84
68128;SHT30;54931;52.098;21.006;2024-01-15T03:27:58;0.97;84.97
68128;SHT30;54931;52.098;21.006;2024-01-15T03:30:25;0.96;85.04
68128;SHT30;54931;52.098;21.006;2024-01-15T03:32:53;0.93;85.16
68128;SHT30;54931;52.098;21.006;2024-01-15T03:35:20;0.92;85.33
68128;SHT30;54931;52.098;21.006;2024-01-15T03:37:49;0.91;85.46
68128;SHT30;54931;52.098;21.006;2024-01-15T03:40:17;0.89;85.40
68128;SHT30;54931;52.098;21.006;2024-01-15T03:42:46;0.89;85.49
68128;SHT30;54931;52.098;21.006;2024-01-15T03:45:14;0.88;85.46
68128;SHT30;54931;52.098;21.006;2024-01-15T03:47:42;0.89;85.46
68128;SHT30;54931;52.098;21.006;2024-01-15T03:50:09;0.88;85.47
68128;SHT30;54931;52.098;21.006;2024-01-15T03:52:40;0.88;85.47
68128;SHT30;54931;52.098;21.006;2024-01-15T03:55:07;0.88;85.43
68128;SHT30;54931;52.098;21.006;2024-01-15T03:57:35;0.89;85.42
68128;SHT30;54931;52.098;21.006;2024-01-15T04:00:04;0.88;85.46
68128;SHT30;54931;52.098;21.006;2024-01-15T04:02:34;0.88;85.47
68128;SHT30;54931;52.098;21.006;2024-01-15T04:05:02;0.88;85.40
68128;SHT30;54931;52.098;21.006;2024-01-15T04:07:30;0.88;85.38
68128;SHT30;54931;52.098;21.006;2024-01-15T04:09:57;0.89;85.30
68128;SHT30;54931;52.098;21.006;2024-01-15T04:12:26;0.90;85.22
68128;SHT30;54931;52.098;21.006;2024-01-15T04:14:54;0.90;85.16
68128;SHT30;54931;52.098;21.006;2024-01-15T04:17:21;0.91;85.10
68128;SHT30;54931;52.098;21.006;2024-01-15T04:19:49;0.91;85.05
68128;SHT30;54931;52.098;21.006;2024-01-15T04:22:16;0.93;84.92
68128;SHT30;54931;52.098;21.006;2024-01-15T04:24:44;0.92;84.84
68128;SHT30;54931;52.098;21.006;2024-01-15T04:27:11;0.92;84.75
68128;SHT30;54931;52.098;21.006;2024-01-15T04:29:40;0.93;84.74
68128;SHT30;54931;52.098;21.006;2024-01-15T04:32:07;0.92;84.69
68128;SHT30;54931;52.098;21.006;2024-01-15T04:34:35;0.93;84.67
68128;SHT30;54931;52.098;21.006;2024-01-15T04:37:02;0.93;84.57
68128;SHT30;54931;52.098;21.006;2024-01-15T04:39:30;0.93;84.52
68128;SHT30;54931;52.098;21.006;2024-01-15T04:41:58;0.94;84.45
68128;SHT30;54931;52.098;21.006;2024-01-15T04:44:25;0.93;84.41
68128;SHT30;54931;52.098;21.006;2024-01-15T04:46:53;0.95;84.40
68128;SHT30;54931;52.098;21.006;2024-01-15T04:49:20;0.95;84.30
68128;SHT30;54931;52.098;21.006;2024-01-15T04:51:48;0.96;84.27
68128;SHT30;54931;52.098;21.006;2024-01-15T04:54:15;0.97;84.23
68128;SHT30;54931;52.098;21.006;2024-01-15T04:56:44;0.98;84.22
68128;SHT30;54931;52.098;21.006;2024-01-15T04:59:12;0.98;84.26
68128;SHT30;54931;52.098;21.006;2024-01-15T05:01:41;0.98;84.15
68128;SHT30;54931;52.098;21.006;2024-01-15T05:04:09;0.98;84.10
68128;SHT30;54931;52.098;21.006;2024-01-15T05:06:36;0.97;84.12
68128;SHT30;54931;52.098;21.006;2024-01-15T05:09:06;0.98;84.11
68128;SHT30;54931;52.098;21.006;2024-01-15T05:11:34;0.97;84.14
68128;SHT30;54931;52.098;21.006;2024-01-15T05:14:02;0.97;84.05
68128;SHT30;54931;52.098;21.006;2024-01-15T05:16:29;0.98;84.08
68128;SHT30;54931;52.098;21.006;2024-01-15T05:18:57;0.99;84.04
68128;SHT30;54931;52.098;21.006;2024-01-15T05:21:24;0.99;84.00
68128;SHT30;54931;52.098;21.006;2024-01-15T05:23:52;0.99;84.00
68128;SHT30;54931;52.098;21.006;2024-01-15T05:26:19;0.99;83.91
68128;SHT30;54931;52.098;21.006;2024-01-15T05:28:47;0.99;83.88
68128;SHT30;54931;52.098;21.006;2024-01-15T05:31:14;1.00;83.80
68128;SHT30;54931;52.098;21.006;2024-01-15T05:33:42;1.01;83.76
68128;SHT30;54931;52.098;21.006;2024-01-15T05:36:10;1.01;83.72
68128;SHT30;54931;52.098;21.006;2024-01-15T05:38:37;1.03;83.56
68128;SHT30;54931;52.098;21.006;2024-01-15T05:41:07;1.05;83.45
68128;SHT30;54931;52.098;21.006;2024-01-15T05:43:34;1.06;83.40
68128;SHT30;54931;52.098;21.006;2024-01-15T05:46:02;1.07;83.37
68128;SHT30;54931;52.098;21.006;2024-01-15T05:48:29;1.08;83.30
68128;SHT30;54931;52.098;21.006;2024-01-15T05:50:57;1.09;83.20
68128;SHT30;54931;52.098;21.006;2024-01-15T05:53:24;1.11;83.04
68128;SHT30;54931;52.098;21.006;2024-01-15T05:55:52;1.12;82.81
68128;SHT30;54931;52.098;21.006;2024-01-15T05:58:21;1.13;82.67
68128;SHT30;54931;52.098;21.006;2024-01-15T06:00:48;1.15;82.56
68128;SHT30;54931;52.098;21.006;2024-01-15T06:03:17;1.16;82.49
68128;SHT30;54931;52.098;21.006;2024-01-15T06:05:45;1.16;82.42
68128;SHT30;54931;52.098;21.006;2024-01-15T06:08:12;1.17;82.33
68128;SHT30;54931;52.098;21.006;2024-01-15T06:10:41;1.17;82.12
68128;SHT30;54931;52.098;21.006;2024-01-15T06:13:09;1.19;81.99
68128;SHT30;54931;52.098;21.006;2024-01-15T06:15:37;1.20;81.89
68128;SHT30;54931;52.098;21.006;2024-01-15T06:18:04;1.20;82.00
68128;SHT30;54931;52.098;21.006;2024-01-15T06:20:32;1.18;81.97
68128;SHT30;54931;52.098;21.006;2024-01-15T06:23:03;1.18;81.82
68128;SHT30;54931;52.098;21.006;2024-01-15T06:25:31;1.19;81.58
68128;SHT30;54931;52.098;21.006;2024-01-15T06:27:58;1.17;81.63
68128;SHT30;54931;52.098;21.006;2024-01-15T06:30:27;1.14;81.67
68128;SHT30;54931;52.098;21.006;2024-01-15T06:32:54;1.13;81.70
68128;SHT30;54931;52.098;21.006;2024-01-15T06:35:22;1.12;81.72
68128;SHT30;54931;52.098;21.006;2024-01-15T06:37:50;1.13;81.74
68128;SHT30;54931;52.098;21.006;2024-01-15T06:40:18;1.13;81.53
68128;SHT30;54931;52.098;21.006;2024-01-15T06:42:46;1.14;81.29
68128;SHT30;54931;52.098;21.006;2024-01-15T06:45:15;1.17;81.37
68128;SHT30;54931;52.098;21.006;2024-01-15T06:47:42;1.17;81.22
68128;SHT30;54931;52.098;21.006;2024-01-15T06:50:10;1.20;81.14
68128;SHT30;54931;52.098;21.006;2024-01-15T06:52:37;1.22;81.02
68128;SHT30;54931;52.098;21.006;2024-01-15T06:55:06;1.24;80.80
68128;SHT30;54931;52.098;21.006;2024-01-15T06:57:35;1.27;80.96
68128;SHT30;54931;52.098;21.006;2024-01-15T07:00:03;1.26;80.78
68128;SHT30;54931;52.098;21.006;2024-01-15T07:02:36;1.27;80.58
68128;SHT30;54931;52.098;21.006;2024-01-15T07:05:05;1.29;80.38
68128;SHT30;54931;52.098;21.006;2024-01-15T07:07:34;1.31;80.57
68128;SHT30;54931;52.098;21.006;2024-01-15T07:10:01;1.32;80.68
68128;SHT30;54931;52.098;21.006;2024-01-15T07:12:30;1.32;80.55
68128;SHT30;54931;52.098;21.006;2024-01-15T07:14:58;1.33;80.60
68128;SHT30;54931;52.098;21.006;2024-01-15T07:17:25;1.34;80.68
68128;SHT30;54931;52.098;21.006;2024-01-15T07:19:53;1.34;80.82
68128;SHT30;54931;52.098;21.006;2024-01-15T07:22:20;1.34;80.72
68128;SHT30;54931;52.098;21.006;2024-01-15T07:24:48;1.35;80.66
68128;SHT30;54931;52.098;21.006;2024-01-15T07:27:15;1.37;80.65
68128;SHT30;54931;52.098;21.006;2024-01-15T07:29:43;1.37;80.73
68128;SHT30;54931;52.098;21.006;2024-01-15T07:32:10;1.39;80.97
68128;SHT30;54931;52.098;21.006;2024-01-15T07:34:38;1.39;81.20
68128;SHT30;54931;52.098;21.006;2024-01-15T07:37:06;1.38;81.40
68128;SHT30;54931;52.098;21.006;2024-01-15T07:39:33;1.36;81.54
68128;SHT30;54931;52.098;21.006;2024-01-15T07:42:01;1.33;81.78
68128;SHT30;54931;52.098;21.006;2024-01-15T07:44:29;1.31;81.94
68128;SHT30;54931;52.098;21.006;2024-01-15T07:46:57;1.27;82.06
68128;SHT30;54931;52.098;21.006;2024-01-15T07:49:25;1.25;82.17
68128;SHT30;54931;52.098;21.006;2024-01-15T07:51:52;1.26;82.20
68128;SHT30;54931;52.098;21.006;2024-01-15T07:54:20;1.28;82.21
68128;SHT30;54931;52.098;21.006;2024-01-15T07:56:54;1.30;82.22
68128;SHT30;54931;52.098;21.006;2024-01-15T07:59:27;1.33;81.78
68128;SHT30;54931;52.098;21.006;2024-01-15T08:01:55;1.37;81.66
68128;SHT30;54931;52.098;21.006;2024-01-15T08:04:22;1.39;81.59
68128;SHT30;54931;52.098;21.006;2024-01-15T08:06:50;1.44;81.68
68128;SHT30;54931;52.098;21.006;2024-01-15T08:09:18;1.45;81.45
68128;SHT30;54931;52.098;21.006;2024-01-15T08:11:46;1.46;81.23
68128;SHT30;54931;52.098;21.006;2024-01-15T08:14:14;1.46;81.41
68128;SHT30;54931;52.098;21.006;2024-01-15T08:16:41;1.42;81.80
68128;SHT30;54931;52.098;21.006;2024-01-15T08:19:11;1.40;82.37
68128;SHT30;54931;52.098;21.006;2024-01-15T08:21:39;1.41;82.74
68128;SHT30;54931;52.098;21.006;2024-01-15T08:24:07;1.42;82.72
68128;SHT30;54931;52.098;21.006;2024-01-15T08:26:35;1.42;82.52
68128;SHT30;54931;52.098;21.006;2024-01-15T08:29:03;1.46;82.30
68128;SHT30;54931;52.098;21.006;2024-01-15T08:31:31;1.51;82.18
68128;SHT30;54931;52.098;21.006;2024-01-15T08:33:58;1.59;81.74
68128;SHT30;54931;52.098;21.006;2024-01-15T08:36:26;1.64;81.33
68128;SHT30;54931;52.098;21.006;2024-01-15T08:38:56;1.65;80.96
68128;SHT30;54931;52.098;21.006;2024-01-15T08:41:24;1.65;80.93
68128;SHT30;54931;52.098;21.006;2024-01-15T08:43:51;1.60;81.49
68128;SHT30;54931;52.098;21.006;2024-01-15T08:46:20;1.51;82.06
68128;SHT30;54931;52.098;21.006;2024-01-15T08:48:48;1.44;82.45
68128;SHT30;54931;52.098;21.006;2024-01-15T08:51:15;1.43;82.66
68128;SHT30;54931;52.098;21.006;2024-01-15T08:53:45;1.47;82.78
68128;SHT30;54931;52.098;21.006;2024-01-15T08:56:13;1.53;82.57
68128;SHT30;54931;52.098;21.006;2024-01-15T08:58:41;1.62;82.00
68128;SHT30;54931;52.098;21.006;2024-01-15T09:01:08;1.72;81.34
68128;SHT30;54931;52.098;21.006;2024-01-15T09:03:36;1.83;80.39
68128;SHT30;54931;52.098;21.006;2024-01-15T09:06:03;1.95;80.18
68128;SHT30;54931;52.098;21.006;2024-01-15T09:08:31;1.97;79.21
68128;SHT30;54931;52.098;21.006;2024-01-15T09:10:59;2.11;78.54
68128;SHT30;54931;52.098;21.006;2024-01-15T09:13:29;2.25;77.24
68128;SHT30;54931;52.098;21.006;2024-01-15T09:15:58;2.32;75.49
68128;SHT30;54931;52.098;21.006;2024-01-15T09:18:26;2.57;74.99
68128;SHT30;54931;52.098;21.006;2024-01-15T09:20:55;2.88;73.97
68128;SHT30;54931;52.098;21.006;2024-01-15T09:23:23;2.97;72.63
68128;SHT30;54931;52.098;21.006;2024-01-15T09:25:50;3.29;72.63
68128;SHT30;54931;52.098;21.006;2024-01-15T09:28:19;3.53;70.69
68128;SHT30;54931;52.098;21.006;2024-01-15T09:30:47;3.54;70.27
68128;SHT30;54931;52.098;21.006;2024-01-15T09:33:14;3.26;70.22
68128;SHT30;54931;52.098;21.006;2024-01-15T09:35:42;3.18;71.19
68128;SHT30;54931;52.098;21.006;2024-01-15T09:38:10;3.08;71.16
68128;SHT30;54931;52.098;21.006;2024-01-15T09:40:38;3.03;71.77
68128;SHT30;54931;52.098;21.006;2024-01-15T09:43:10;3.01;72.14
68128;SHT30;54931;52.098;21.006;2024-01-15T09:45:39;2.99;71.16
68128;SHT30;54931;52.098;21.006;2024-01-15T09:48:08;3.02;71.21
68128;SHT30;54931;52.098;21.006;2024-01-15T09:50:35;3.06;70.87
68128;SHT30;54931;52.098;21.006;2024-01-15T09:53:05;3.08;70.30
68128;SHT30;54931;52.098;21.006;2024-01-15T09:55:33;2.98;69.08
68128;SHT30;54931;52.098;21.006;2024-01-15T09:58:00;2.97;69.59
68128;SHT30;54931;52.098;21.006;2024-01-15T10:00:29;2.93;69.37
68128;SHT30;54931;52.098;21.006;2024-01-15T10:02:58;2.91;69.04
68128;SHT30;54931;52.098;21.006;2024-01-15T10:05:27;2.87;68.58
68128;SHT30;54931;52.098;21.006;2024-01-15T10:07:55;2.89;68.91
68128;SHT30;54931;52.098;21.006;2024-01-15T10:10:24;2.92;68.65
68128;SHT30;54931;52.098;21.006;2024-01-15T10:12:52;2.94;68.49
68128;SHT30;54931;52.098;21.006;2024-01-15T10:15:22;2.95;68.40
68128;SHT30;54931;52.098;21.006;2024-01-15T10:17:51;2.91;67.96
68128;SHT30;54931;52.098;21.006;2024-01-15T10:20:19;2.89;67.93
68128;SHT30;54931;52.098;21.006;2024-01-15T10:22:50;2.84;68.11
68128;SHT30;54931;52.098;21.006;2024-01-15T10:25:17;2.86;68.83
68128;SHT30;54931;52.098;21.006;2024-01-15T10:28:00;2.87;68.87
68128;SHT30;54931;52.098;21.006;2024-01-15T10:30:30;2.86;68.85
68128;SHT30;54931;52.098;21.006;2024-01-15T10:33:01;2.87;69.07
68128;SHT30;54931;52.098;21.006;2024-01-15T10:35:31;2.87;69.64
68128;SHT30;54931;52.098;21.006;2024-01-15T10:38:01;2.84;69.51
68128;SHT30;54931;52.098;21.006;2024-01-15T10:40:30;2.79;69.80
68128;SHT30;54931;52.098;21.006;2024-01-15T10:42:57;2.78;70.41
68128;SHT30;54931;52.098;21.006;2024-01-15T10:45:25;2.73;70.63
68128;SHT30;54931;52.098;21.006;2024-01-15T10:47:53;2.73;71.05
68128;SHT30;54931;52.098;21.006;2024-01-15T10:50:27;2.81;71.24
68128;SHT30;54931;52.098;21.006;2024-01-15T10:52:57;2.98;71.31
68128;SHT30;54931;52.098;21.006;2024-01-15T10:55:25;3.35;71.08
68128;SHT30;54931;52.098;21.006;2024-01-15T10:57:54;3.63;69.78
68128;SHT30;54931;52.098;21.006;2024-01-15T11:00:23;3.73;69.18
68128;SHT30;54931;52.098;21.006;2024-01-15T11:02:52;3.75;69.52
68128;SHT30;54931;52.098;21.006;2024-01-15T11:05:22;3.58;68.92
68128;SHT30;54931;52.098;21.006;2024-01-15T11:07:50;3.41;68.98
68128;SHT30;54931;52.098;21.006;2024-01-15T11:10:40;3.36;69.44
68128;SHT30;54931;52.098;21.006;2024-01-15T11:13:19;3.34;69.71
68128;SHT30;54931;52.098;21.006;2024-01-15T11:16:03;3.34;69.42
68128;SHT30;54931;52.098;21.006;2024-01-15T11:18:40;3.39;69.38
68128;SHT30;54931;52.098;21.006;2024-01-15T11:21:30;3.35;68.78
68128;SHT30;54931;52.098;21.006;2024-01-15T11:24:01;3.28;68.73
68128;SHT30;54931;52.098;21.006;2024-01-15T11:26:30;3.26;68.92
68128;SHT30;54931;52.098;21.006;2024-01-15T11:29:00;3.28;69.33
68128;SHT30;54931;52.098;21.006;2024-01-15T11:34:20;3.23;68.97
68128;SHT30;54931;52.098;21.006;2024-01-15T11:37:19;3.24;69.22
68128;SHT30;54931;52.098;21.006;2024-01-15T11:39:49;3.27;69.31
68128;SHT30;54931;52.098;21.006;2024-01-15T11:42:22;3.22;69.18
68128;SHT30;54931;52.098;21.006;2024-01-15T11:44:51;3.14;69.93
68128;SHT30;54931;52.098;21.006;2024-01-15T11:50:21;3.00;71.65
68128;SHT30;54931;52.098;21.006;2024-01-15T11:55:34;2.82;72.02
68128;SHT30;54931;52.098;21.006;2024-01-15T11:58:08;2.76;72.01
68128;SHT30;54931;52.098;21.006;2024-01-15T12:00:44;2.79;72.18
68128;SHT30;54931;52.098;21.006;2024-01-15T12:03:17;2.82;72.62
68128;SHT30;54931;52.098;21.006;2024-01-15T12:05:47;2.79;73.12
68128;SHT30;54931;52.098;21.006;2024-01-15T12:08:20;2.65;73.41
68128;SHT30;54931;52.098;21.006;2024-01-15T12:10:49;2.57;73.77
68128;SHT30;54931;52.098;21.006;2024-01-15T12:13:17;2.49;74.31
68128;SHT30;54931;52.098;21.006;2024-01-15T12:15:45;2.48;74.97
68128;SHT30;54931;52.098;21.006;2024-01-15T12:18:15;2.38;75.62
68128;SHT30;54931;52.098;21.006;2024-01-15T12:20:45;2.32;75.82
68128;SHT30;54931;52.098;21.006;2024-01-15T12:23:16;2.26;76.13
68128;SHT30;54931;52.098;21.006;2024-01-15T12:25:44;2.24;76.38
68128;SHT30;54931;52.098;21.006;2024-01-15T12:28:13;2.26;76.36
68128;SHT30;54931;52.098;21.006;2024-01-15T12:30:41;2.26;76.22
68128;SHT30;54931;52.098;21.006;2024-01-15T12:33:10;2.26;76.53
68128;SHT30;54931;52.098;21.006;2024-01-15T12:35:38;2.20;76.54
68128;SHT30;54931;52.098;21.006;2024-01-15T12:38:07;2.19;76.41
68128;SHT30;54931;52.098;21.006;2024-01-15T12:40:34;2.21;76.20
68128;SHT30;54931;52.098;21.006;2024-01-15T12:43:05;2.21;76.06
68128;SHT30;54931;52.098;21.006;2024-01-15T12:45:34;2.15;75.79
68128;SHT30;54931;52.098;21.006;2024-01-15T12:48:05;2.07;75.43
68128;SHT30;54931;52.098;21.006;2024-01-15T12:50:33;2.04;75.44
68128;SHT30;54931;52.098;21.006;2024-01-15T12:53:02;2.06;75.78
68128;SHT30;54931;52.098;21.006;2024-01-15T12:55:31;2.06;75.58
68128;SHT30;54931;52.098;21.006;2024-01-15T12:57:58;2.03;75.12
68128;SHT30;54931;52.098;21.006;2024-01-15T13:00:26;2.01;75.10
68128;SHT30;54931;52.098;21.006;2024-01-15T13:02:54;1.95;75.32
68128;SHT30;54931;52.098;21.006;2024-01-15T13:05:24;1.85;76.71
68128;SHT30;54931;52.098;21.006;2024-01-15T13:07:54;1.76;78.22
68128;SHT30;54931;52.098;21.006;2024-01-15T13:10:22;1.57;79.42
68128;SHT30;54931;52.098;21.006;2024-01-15T13:12:50;1.49;79.92
68128;SHT30;54931;52.098;21.006;2024-01-15T13:15:18;1.44;80.14
68128;SHT30;54931;52.098;21.006;2024-01-15T13:17:45;1.40;80.46
68128;SHT30;54931;52.098;21.006;2024-01-15T13:20:13;1.37;80.44
68128;SHT30;54931;52.098;21.006;2024-01-15T13:22:41;1.34;80.67
68128;SHT30;54931;52.098;21.006;2024-01-15T13:25:11;1.32;80.77
68128;SHT30;54931;52.098;21.006;2024-01-15T13:27:39;1.33;80.52
68128;SHT30;54931;52.098;21.006;2024-01-15T13:30:11;1.37;79.60
68128;SHT30;54931;52.098;21.006;2024-01-15T13:32:39;1.40;79.53
68128;SHT30;54931;52.098;21.006;2024-01-15T13:35:07;1.40;79.35
68128;SHT30;54931;52.098;21.006;2024-01-15T13:37:37;1.40;79.33
68128;SHT30;54931;52.098;21.006;2024-01-15T13:40:05;1.42;78.99
68128;SHT30;54931;52.098;21.006;2024-01-15T13:42:36;1.45;78.69
68128;SHT30;54931;52.098;21.006;2024-01-15T13:45:07;1.46;78.39
68128;SHT30;54931;52.098;21.006;2024-01-15T13:47:35;1.46;78.59
68128;SHT30;54931;52.098;21.006;2024-01-15T13:50:04;1.45;78.78
68128;SHT30;54931;52.098;21.006;2024-01-15T13:52:34;1.42;78.87
68128;SHT30;54931;52.098;21.006;2024-01-15T13:55:02;1.41;78.95
68128;SHT30;54931;52.098;21.006;2024-01-15T13:57:30;1.36;79.01
68128;SHT30;54931;52.098;21.006;2024-01-15T13:59:58;1.34;78.99
68128;SHT30;54931;52.098;21.006;2024-01-15T14:02:25;1.32;79.08
68128;SHT30;54931;52.098;21.006;2024-01-15T14:04:53;1.33;79.16
68128;SHT30;54931;52.098;21.006;2024-01-15T14:07:21;1.32;79.07
68128;SHT30;54931;52.098;21.006;2024-01-15T14:09:49;1.30;78.94
68128;SHT30;54931;52.098;21.006;2024-01-15T14:12:17;1.29;78.94
68128;SHT30;54931;52.098;21.006;2024-01-15T14:14:45;1.26;79.03
68128;SHT30;54931;52.098;21.006;2024-01-15T14:17:13;1.24;78.93
68128;SHT30;54931;52.098;21.006;2024-01-15T14:19:40;1.21;78.88
68128;SHT30;54931;52.098;21.006;2024-01-15T14:22:08;1.16;78.91
68128;SHT30;54931;52.098;21.006;2024-01-15T14:24:35;1.10;78.99
68128;SHT30;54931;52.098;21.006;2024-01-15T14:27:04;1.05;79.03
68128;SHT30;54931;52.098;21.006;2024-01-15T14:29:32;1.00;79.11
68128;SHT30;54931;52.098;21.006;2024-01-15T14:32:00;0.97;79.22
68128;SHT30;54931;52.098;21.006;2024-01-15T14:34:28;0.97;79.30
68128;SHT30;54931;52.098;21.006;2024-01-15T14:36:58;0.95;79.43
68128;SHT30;54931;52.098;21.006;2024-01-15T14:39:25;0.94;79.46
68128;SHT30;54931;52.098;21.006;2024-01-15T14:41:53;0.94;79.50
68128;SHT30;54931;52.098;21.006;2024-01-15T14:44:21;0.91;79.67
68128;SHT30;54931;52.098;21.006;2024-01-15T14:46:49;0.90;79.63
68128;SHT30;54931;52.098;21.006;2024-01-15T14:49:17;0.88;79.65
68128;SHT30;54931;52.098;21.006;2024-01-15T14:51:45;0.87;79.74
68128;SHT30;54931;52.098;21.006;2024-01-15T14:54:13;0.86;79.78
68128;SHT30;54931;52.098;21.006;2024-01-15T14:56:41;0.86;79.70
68128;SHT30;54931;52.098;21.006;2024-01-15T14:59:10;0.87;79.62
68128;SHT30;54931;52.098;21.006;2024-01-15T15:01:38;0.86;79.44
68128;SHT30;54931;52.098;21.006;2024-01-15T15:04:07;0.87;79.21
68128;SHT30;54931;52.098;21.006;2024-01-15T15:06:35;0.88;79.17
68128;SHT30;54931;52.098;21.006;2024-01-15T15:09:04;0.88;79.11
68128;SHT30;54931;52.098;21.006;2024-01-15T15:11:36;0.87;79.11
68128;SHT30;54931;52.098;21.006;2024-01-15T15:14:04;0.86;79.13
68128;SHT30;54931;52.098;21.006;2024-01-15T15:16:32;0.88;78.96
68128;SHT30;54931;52.098;21.006;2024-01-15T15:19:00;0.88;78.98
68128;SHT30;54931;52.098;21.006;2024-01-15T15:21:27;0.87;78.87
68128;SHT30;54931;52.098;21.006;2024-01-15T15:23:56;0.88;78.78
68128;SHT30;54931;52.098;21.006;2024-01-15T15:26:24;0.87;78.75
68128;SHT30;54931;52.098;21.006;2024-01-15T15:28:52;0.84;78.95
68128;SHT30;54931;52.098;21.006;2024-01-15T15:31:19;0.81;79.04
68128;SHT30;54931;52.098;21.006;2024-01-15T15:33:47;0.79;79.22
68128;SHT30;54931;52.098;21.006;2024-01-15T15:36:15;0.79;79.22
68128;SHT30;54931;52.098;21.006;2024-01-15T15:38:43;0.78;79.32
68128;SHT30;54931;52.098;21.006;2024-01-15T15:41:11;0.77;79.37
68128;SHT30;54931;52.098;21.006;2024-01-15T15:43:39;0.77;79.43
68128;SHT30;54931;52.098;21.006;2024-01-15T15:46:07;0.77;79.33